createdAt,value
2018-04-19T00:02:01.029Z,11.20
2018-04-19T00:04:28.621Z,11.10
2018-04-19T00:06:56.991Z,11.10
2018-04-19T00:09:24.590Z,11.00
2018-04-19T00:11:52.214Z,11.10
2018-04-19T00:14:19.820Z,11.10
2018-04-19T00:16:47.462Z,11.00
2018-04-19T00:19:15.099Z,11.00
2018-04-19T00:21:43.473Z,11.00
2018-04-19T00:24:11.062Z,11.00
2018-04-19T00:26:39.462Z,11.00
2018-04-19T00:29:07.109Z,11.00
2018-04-19T00:31:34.746Z,11.00
2018-04-19T00:34:03.104Z,10.90
2018-04-19T00:36:30.696Z,10.90
2018-04-19T00:38:59.049Z,10.90
2018-04-19T00:41:26.633Z,10.90
2018-04-19T00:43:54.988Z,10.80
2018-04-19T00:46:22.588Z,10.70
2018-04-19T00:48:50.182Z,10.80
2018-04-19T00:51:17.776Z,10.70
2018-04-19T00:53:45.368Z,10.70
2018-04-19T00:56:12.960Z,10.60
2018-04-19T00:58:40.554Z,10.60
2018-04-19T01:01:08.140Z,10.50
2018-04-19T01:03:36.493Z,10.60
2018-04-19T01:06:04.085Z,10.60
2018-04-19T01:08:31.679Z,10.60
2018-04-19T01:10:59.269Z,10.50
2018-04-19T01:13:26.898Z,10.50
2018-04-19T01:15:54.521Z,10.40
2018-04-19T01:18:22.160Z,10.40
2018-04-19T01:20:50.583Z,10.30
2018-04-19T01:23:18.182Z,10.30
2018-04-19T01:25:45.821Z,10.30
2018-04-19T01:28:13.410Z,10.20
2018-04-19T01:30:41.008Z,10.20
2018-04-19T01:33:08.602Z,10.10
2018-04-19T01:35:47.934Z,10.10
2018-04-19T01:38:15.516Z,10.10
2018-04-19T01:40:43.116Z,10.00
2018-04-19T01:43:11.508Z,9.80
2018-04-19T01:45:39.096Z,9.80
2018-04-19T01:48:06.687Z,9.70
2018-04-19T01:50:34.275Z,9.70
2018-04-19T01:53:01.864Z,9.60
2018-04-19T01:55:29.504Z,9.70
2018-04-19T01:57:57.106Z,9.70
2018-04-19T02:00:24.693Z,9.60
2018-04-19T02:02:52.280Z,9.50
2018-04-19T02:05:19.865Z,9.50
2018-04-19T02:07:47.449Z,9.40
2018-04-19T02:10:15.065Z,9.30
2018-04-19T02:12:42.651Z,9.30
2018-04-19T02:15:10.237Z,9.30
2018-04-19T02:17:37.817Z,9.30
2018-04-19T02:20:05.408Z,9.20
2018-04-19T02:22:32.995Z,9.20
2018-04-19T02:25:00.576Z,9.20
2018-04-19T02:27:28.173Z,9.20
2018-04-19T02:29:56.519Z,9.10
2018-04-19T02:32:24.180Z,9.10
2018-04-19T02:34:51.764Z,9.10
2018-04-19T02:37:20.124Z,8.90
2018-04-19T02:39:47.714Z,8.90
2018-04-19T02:42:16.065Z,8.90
2018-04-19T02:44:43.658Z,8.90
2018-04-19T02:47:11.247Z,8.90
2018-04-19T02:49:38.837Z,8.90
2018-04-19T02:52:06.442Z,8.80
2018-04-19T02:54:34.098Z,8.80
2018-04-19T02:57:01.655Z,8.90
2018-04-19T02:59:29.318Z,8.80
2018-04-19T03:01:56.936Z,8.70
2018-04-19T03:04:24.532Z,8.70
2018-04-19T03:06:52.901Z,8.60
2018-04-19T03:09:21.266Z,8.60
2018-04-19T03:11:48.861Z,8.60
2018-04-19T03:14:16.460Z,8.60
2018-04-19T03:16:44.118Z,8.60
2018-04-19T03:19:11.705Z,8.50
2018-04-19T03:21:39.331Z,8.60
2018-04-19T03:24:06.920Z,8.60
2018-04-19T03:26:34.513Z,8.60
2018-04-19T03:29:02.884Z,8.50
2018-04-19T03:31:31.242Z,8.50
2018-04-19T03:33:58.837Z,8.50
2018-04-19T03:36:26.420Z,8.50
2018-04-19T03:38:54.189Z,8.50
2018-04-19T03:41:21.781Z,8.50
2018-04-19T03:43:49.373Z,8.50
2018-04-19T03:46:17.729Z,8.50
2018-04-19T03:48:45.316Z,8.50
2018-04-19T03:51:13.678Z,8.30
2018-04-19T03:53:42.042Z,8.20
2018-04-19T03:56:09.645Z,8.20
2018-04-19T03:58:37.294Z,8.30
2018-04-19T04:01:05.708Z,8.10
2018-04-19T04:03:34.021Z,8.10
2018-04-19T04:06:01.610Z,8.10
2018-04-19T04:08:29.952Z,8.10
2018-04-19T04:10:57.539Z,8.00
2018-04-19T04:13:25.949Z,8.00
2018-04-19T04:15:53.529Z,8.00
2018-04-19T04:18:46.877Z,7.90
2018-04-19T04:21:18.355Z,8.00
2018-04-19T04:23:54.144Z,8.00
2018-04-19T04:26:22.836Z,8.00
2018-04-19T04:28:51.229Z,8.00
2018-04-19T04:31:18.956Z,8.00
2018-04-19T04:33:47.448Z,8.10
2018-04-19T04:36:15.800Z,8.20
2018-04-19T04:38:43.529Z,8.20
2018-04-19T04:41:11.124Z,8.20
2018-04-19T04:51:08.917Z,8.30
2018-04-19T04:53:36.544Z,8.30
2018-04-19T04:56:05.004Z,8.30
2018-04-19T04:58:32.584Z,8.30
2018-04-19T05:01:00.237Z,8.30
2018-04-19T05:03:27.821Z,8.30
2018-04-19T05:05:56.260Z,8.50
2018-04-19T05:08:23.924Z,8.50
2018-04-19T05:10:51.515Z,8.60
2018-04-19T05:13:19.864Z,8.80
2018-04-19T05:15:47.452Z,8.80
2018-04-19T05:18:15.866Z,9.00
2018-04-19T05:20:43.444Z,9.00
2018-04-19T05:23:11.059Z,9.00
2018-04-19T05:25:38.632Z,9.10
2018-04-19T05:28:06.236Z,9.20
2018-04-19T05:30:33.887Z,9.30
2018-04-19T05:33:01.467Z,9.40
2018-04-19T05:35:29.103Z,9.40
2018-04-19T05:37:56.728Z,9.50
2018-04-19T05:40:24.313Z,9.60
2018-04-19T05:42:51.933Z,9.60
2018-04-19T05:45:20.328Z,9.80
2018-04-19T05:47:47.956Z,9.80
2018-04-19T05:50:16.419Z,9.90
2018-04-19T05:52:44.016Z,10.00
2018-04-19T05:55:12.395Z,10.10
2018-04-19T05:57:44.868Z,10.20
2018-04-19T06:00:13.219Z,10.30
2018-04-19T06:02:40.792Z,10.30
2018-04-19T06:05:08.369Z,10.40
2018-04-19T06:07:35.949Z,10.50
2018-04-19T06:10:03.527Z,10.60
2018-04-19T06:12:31.116Z,10.70
2018-04-19T06:14:58.696Z,10.70
2018-04-19T06:17:27.036Z,10.90
2018-04-19T06:19:54.640Z,10.90
2018-04-19T06:22:22.252Z,11.00
2018-04-19T06:24:49.827Z,11.10
2018-04-19T06:27:17.419Z,11.20
2018-04-19T06:29:45.001Z,11.30
2018-04-19T06:32:12.644Z,11.50
2018-04-19T06:34:40.226Z,11.60
2018-04-19T06:37:07.804Z,11.60
2018-04-19T06:39:35.376Z,11.70
2018-04-19T06:42:02.956Z,11.80
2018-04-19T06:44:31.346Z,12.00
2018-04-19T06:46:58.955Z,12.00
2018-04-19T06:49:26.531Z,12.10
2018-04-19T06:51:54.109Z,12.20
2018-04-19T06:54:22.451Z,12.40
2018-04-19T06:56:50.033Z,12.40
2018-04-19T06:59:18.376Z,12.60
2018-04-19T07:01:45.952Z,12.60
2018-04-19T07:04:13.567Z,12.70
2018-04-19T07:06:41.144Z,12.80
2018-04-19T07:09:08.760Z,12.90
2018-04-19T07:11:37.120Z,13.20
2018-04-19T07:14:05.469Z,13.20
2018-04-19T07:16:33.049Z,13.20
2018-04-19T07:19:00.628Z,13.40
2018-04-19T07:21:28.972Z,13.50
2018-04-19T07:23:56.552Z,13.50
2018-04-19T07:26:24.939Z,13.80
2018-04-19T07:28:53.287Z,13.90
2018-04-19T07:31:20.902Z,13.90
2018-04-19T07:33:48.571Z,13.90
2018-04-19T07:36:16.153Z,14.00
2018-04-19T07:38:43.743Z,14.10
2018-04-19T07:41:12.087Z,14.30
2018-04-19T07:43:39.671Z,14.30
2018-04-19T07:46:08.097Z,14.50
2018-04-19T07:48:35.680Z,14.50
2018-04-19T07:51:03.292Z,14.60
2018-04-19T07:53:30.864Z,14.70
2018-04-19T07:55:59.220Z,14.90
2018-04-19T07:58:26.831Z,14.90
2018-04-19T08:00:54.447Z,15.00
2018-04-19T08:03:22.088Z,15.10
2018-04-19T08:05:49.667Z,15.30
2018-04-19T08:08:17.249Z,15.40
2018-04-19T08:10:44.836Z,15.50
2018-04-19T08:13:12.417Z,15.60
2018-04-19T08:15:40.846Z,15.80
2018-04-19T08:18:08.440Z,15.80
2018-04-19T08:20:36.016Z,15.90
2018-04-19T08:23:04.402Z,16.20
2018-04-19T08:25:32.740Z,16.30
2018-04-19T08:28:00.319Z,16.20
2018-04-19T08:30:28.668Z,16.40
2018-04-19T08:32:56.247Z,16.40
2018-04-19T08:35:23.859Z,16.50
2018-04-19T08:37:51.426Z,16.60
2018-04-19T08:40:19.008Z,16.70
2018-04-19T08:42:46.596Z,16.80
2018-04-19T08:45:14.939Z,17.00
2018-04-19T08:47:42.512Z,17.00
2018-04-19T08:50:10.178Z,17.10
2018-04-19T08:52:37.728Z,17.20
2018-04-19T08:55:05.312Z,17.30
2018-04-19T08:57:33.652Z,17.60
2018-04-19T09:00:01.234Z,17.50
2018-04-19T09:02:29.584Z,17.80
2018-04-19T09:04:57.167Z,17.80
2018-04-19T09:07:25.518Z,18.00
2018-04-19T09:09:53.132Z,18.00
2018-04-19T09:12:20.718Z,18.10
2018-04-19T09:14:48.323Z,18.20
2018-04-19T09:17:16.675Z,18.40
2018-04-19T09:19:44.247Z,18.30
2018-04-19T09:22:11.829Z,18.60
2018-04-19T09:24:39.452Z,18.70
2018-04-19T09:27:07.040Z,18.70
2018-04-19T09:29:35.432Z,19.00
2018-04-19T09:32:03.007Z,19.00
2018-04-19T09:34:30.621Z,19.10
2018-04-19T09:36:58.208Z,19.20
2018-04-19T09:39:25.843Z,19.30
2018-04-19T09:41:54.194Z,19.70
2018-04-19T09:44:21.772Z,19.60
2018-04-19T09:46:49.355Z,19.80
2018-04-19T09:49:16.941Z,19.80
2018-04-19T09:51:45.309Z,20.00
2018-04-19T09:54:12.991Z,19.90
2018-04-19T09:56:55.265Z,20.00
2018-04-19T09:59:22.842Z,20.20
2018-04-19T10:01:52.280Z,20.20
2018-04-19T10:04:25.575Z,20.40
2018-04-19T10:06:53.156Z,20.50
2018-04-19T10:09:20.764Z,20.70
2018-04-19T10:11:48.349Z,20.70
2018-04-19T10:14:15.932Z,20.90
2018-04-19T10:16:44.272Z,20.90
2018-04-19T10:19:11.888Z,20.90
2018-04-19T10:21:39.505Z,21.00
2018-04-19T10:24:07.096Z,21.10
2018-04-19T10:26:34.677Z,21.20
2018-04-19T10:29:02.260Z,21.40
2018-04-19T10:31:29.840Z,21.60
2018-04-19T10:33:57.420Z,21.80
2018-04-19T10:36:25.759Z,21.90
2018-04-19T10:38:53.336Z,21.90
2018-04-19T10:41:20.912Z,22.00
2018-04-19T10:43:49.259Z,22.20
2018-04-19T10:46:16.846Z,22.20
2018-04-19T10:48:45.204Z,22.40
2018-04-19T10:51:12.785Z,22.40
2018-04-19T10:53:40.388Z,22.50
2018-04-19T10:56:07.963Z,22.40
2018-04-19T10:58:36.543Z,22.50
2018-04-19T11:01:04.127Z,22.60
2018-04-19T11:03:32.551Z,22.80
2018-04-19T11:06:00.168Z,22.80
2018-04-19T11:08:28.524Z,23.10
2018-04-19T11:10:56.107Z,23.10
2018-04-19T11:13:24.455Z,23.30
2018-04-19T11:15:52.062Z,23.30
2018-04-19T11:18:19.639Z,23.30
2018-04-19T11:20:47.224Z,23.40
2018-04-19T11:23:14.808Z,23.50
2018-04-19T11:25:43.148Z,23.60
2018-04-19T11:28:10.763Z,23.50
2018-04-19T11:30:38.345Z,23.80
2018-04-19T11:33:05.924Z,23.90
2018-04-19T11:35:33.500Z,24.00
2018-04-19T11:38:01.092Z,24.10
2018-04-19T11:40:28.683Z,24.10
2018-04-19T11:42:56.261Z,24.20
2018-04-19T11:45:23.880Z,24.30
2018-04-19T11:47:51.463Z,24.30
2018-04-19T11:50:19.084Z,24.50
2018-04-19T11:52:47.414Z,24.70
2018-04-19T11:55:15.004Z,24.70
2018-04-19T11:57:43.392Z,25.00
2018-04-19T12:00:10.989Z,25.00
2018-04-19T12:02:38.568Z,25.10
2018-04-19T12:05:06.153Z,25.10
2018-04-19T12:07:34.575Z,25.20
2018-04-19T12:10:02.165Z,25.10
2018-04-19T12:12:29.740Z,25.20
2018-04-19T12:14:57.355Z,25.20
2018-04-19T12:17:24.941Z,25.20
2018-04-19T12:19:52.980Z,25.10
2018-04-19T12:22:21.328Z,25.30
2018-04-19T12:24:49.674Z,25.40
2018-04-19T12:27:17.248Z,25.40
2018-04-19T12:29:45.595Z,25.60
2018-04-19T12:32:13.225Z,25.60
2018-04-19T12:34:45.658Z,25.70
2018-04-19T12:37:14.004Z,25.70
2018-04-19T12:39:41.580Z,25.70
2018-04-19T12:42:09.200Z,25.80
2018-04-19T12:44:36.788Z,25.90
2018-04-19T12:47:04.363Z,26.00
2018-04-19T12:49:32.002Z,26.10
2018-04-19T12:51:59.583Z,26.20
2018-04-19T12:54:27.932Z,26.50
2018-04-19T12:59:27.368Z,26.50
2018-04-19T13:01:56.699Z,26.50
2018-04-19T13:04:24.334Z,26.60
2018-04-19T13:06:52.688Z,26.70
2018-04-19T13:09:20.267Z,26.70
2018-04-19T13:11:48.624Z,26.70
2018-04-19T13:14:16.207Z,26.70
2018-04-19T13:16:44.568Z,26.90
2018-04-19T13:19:12.154Z,26.90
2018-04-19T13:21:39.741Z,26.90
2018-04-19T13:24:13.232Z,26.90
2018-04-19T13:26:40.824Z,26.90
2018-04-19T13:29:08.412Z,27.00
2018-04-19T13:31:36.048Z,27.10
2018-04-19T13:34:03.635Z,27.20
2018-04-19T13:36:31.225Z,27.30
2018-04-19T13:38:59.580Z,27.40
2018-04-19T13:41:27.208Z,27.40
2018-04-19T13:43:54.795Z,27.50
2018-04-19T13:46:22.390Z,27.60
2018-04-19T13:48:49.980Z,27.70
2018-04-19T13:51:17.597Z,27.70
2018-04-19T13:53:45.993Z,27.60
2018-04-19T13:56:13.648Z,27.50
2018-04-19T13:58:41.236Z,27.60
2018-04-19T14:01:08.854Z,27.50
2018-04-19T14:03:36.448Z,27.60
2018-04-19T14:06:04.039Z,27.70
2018-04-19T14:08:31.624Z,27.80
2018-04-19T14:10:59.224Z,27.80
2018-04-19T14:13:26.804Z,28.00
2018-04-19T14:15:54.384Z,28.10
2018-04-19T14:18:21.975Z,28.10
2018-04-19T14:20:50.358Z,28.20
2018-04-19T14:23:18.254Z,28.10
2018-04-19T14:25:45.868Z,28.00
2018-04-19T14:28:14.275Z,28.00
2018-04-19T14:30:42.724Z,28.10
2018-04-19T14:33:10.308Z,28.10
2018-04-19T14:35:37.906Z,28.20
2018-04-19T14:38:06.341Z,28.30
2018-04-19T14:40:34.003Z,28.30
2018-04-19T14:43:01.655Z,28.40
2018-04-19T14:45:30.076Z,28.60
2018-04-19T14:47:57.701Z,28.50
2018-04-19T14:50:26.064Z,28.60
2018-04-19T14:52:55.748Z,28.60
2018-04-19T14:55:25.426Z,28.70
2018-04-19T14:57:53.467Z,28.70
2018-04-19T15:00:21.076Z,28.70
2018-04-19T15:02:48.670Z,28.50
2018-04-19T15:05:21.242Z,28.60
2018-04-19T15:07:50.150Z,28.60
2018-04-19T15:10:18.102Z,28.60
2018-04-19T15:12:46.115Z,28.60
2018-04-19T15:15:16.238Z,28.60
2018-04-19T15:17:45.781Z,28.70
2018-04-19T15:20:14.165Z,28.90
2018-04-19T15:22:42.229Z,28.80
2018-04-19T15:25:09.810Z,28.80
2018-04-19T15:27:37.417Z,28.80
2018-04-19T15:30:05.992Z,28.90
2018-04-19T15:32:39.194Z,28.90
2018-04-19T15:35:06.785Z,28.90
2018-04-19T15:37:35.196Z,29.10
2018-04-19T15:40:03.541Z,29.10
2018-04-19T15:42:31.123Z,29.10
2018-04-19T15:44:58.708Z,29.20
2018-04-19T15:47:26.290Z,29.10
2018-04-19T15:49:54.661Z,29.10
2018-04-19T15:52:22.284Z,29.10
2018-04-19T15:54:49.880Z,29.40
2018-04-19T15:57:17.462Z,29.50
2018-04-19T15:59:45.089Z,29.60
2018-04-19T16:02:12.854Z,29.60
2018-04-19T16:04:40.428Z,29.50
2018-04-19T16:07:08.900Z,29.20
2018-04-19T16:09:36.505Z,29.20
2018-04-19T16:12:04.930Z,29.10
2018-04-19T16:14:32.594Z,29.10
2018-04-19T16:17:00.176Z,29.20
2018-04-19T16:19:27.764Z,29.50
2018-04-19T16:21:56.117Z,29.70
2018-04-19T16:24:23.701Z,29.70
2018-04-19T16:26:52.053Z,29.70
2018-04-19T16:29:19.652Z,29.70
2018-04-19T16:31:47.233Z,29.80
2018-04-19T16:34:14.820Z,30.40
2018-04-19T16:36:42.397Z,30.60
2018-04-19T16:39:09.984Z,30.50
2018-04-19T16:41:38.368Z,29.80
2018-04-19T16:44:05.967Z,29.80
2018-04-19T16:46:33.560Z,29.30
2018-04-19T16:49:01.141Z,29.40
2018-04-19T16:51:28.723Z,29.40
2018-04-19T16:53:56.301Z,29.50
2018-04-19T16:56:24.013Z,29.60
2018-04-19T16:58:52.388Z,29.70
2018-04-19T17:01:20.756Z,29.70
2018-04-19T17:03:49.113Z,29.60
2018-04-19T17:06:16.744Z,29.60
2018-04-19T17:08:44.324Z,29.30
2018-04-19T17:11:11.931Z,29.20
2018-04-19T17:13:39.520Z,29.20
2018-04-19T17:16:07.111Z,28.90
2018-04-19T17:18:34.696Z,28.70
2018-04-19T17:21:03.042Z,28.20
2018-04-19T17:23:30.632Z,28.20
2018-04-19T17:25:58.216Z,28.00
2018-04-19T17:28:25.810Z,27.50
2018-04-19T17:30:53.400Z,27.10
2018-04-19T17:33:21.748Z,25.90
2018-04-19T17:35:49.328Z,25.80
2018-04-19T17:38:17.671Z,25.20
2018-04-19T17:40:45.263Z,25.10
2018-04-19T17:43:13.644Z,24.50
2018-04-19T17:45:41.983Z,24.30
2018-04-19T17:48:09.567Z,24.30
2018-04-19T17:50:37.931Z,23.90
2018-04-19T17:53:05.543Z,23.80
2018-04-19T17:55:33.128Z,23.60
2018-04-19T17:58:00.719Z,23.30
2018-04-19T18:00:29.110Z,23.00
2018-04-19T18:02:57.463Z,22.90
2018-04-19T18:05:25.052Z,22.80
2018-04-19T18:07:52.632Z,22.60
2018-04-19T18:10:20.228Z,22.50
2018-04-19T18:12:48.345Z,22.20
2018-04-19T18:15:15.939Z,21.90
2018-04-19T18:17:43.540Z,21.70
2018-04-19T18:20:11.891Z,21.50
2018-04-19T18:22:39.492Z,21.50
2018-04-19T18:25:07.090Z,21.40
2018-04-19T18:27:34.676Z,21.20
2018-04-19T18:30:02.269Z,20.90
2018-04-19T18:32:30.820Z,20.70
2018-04-19T18:34:58.403Z,20.60
2018-04-19T18:37:26.021Z,20.50
2018-04-19T18:39:54.456Z,20.60
2018-04-19T18:42:22.072Z,20.40
2018-04-19T18:47:43.571Z,20.00
2018-04-19T18:50:11.160Z,20.00
2018-04-19T18:52:43.433Z,19.80
2018-04-19T18:55:24.603Z,19.60
2018-04-19T18:57:53.046Z,19.60
2018-04-19T19:02:57.457Z,19.50
2018-04-19T19:05:25.941Z,19.40
2018-04-19T19:07:53.603Z,19.40
2018-04-19T19:10:21.417Z,19.30
2018-04-19T19:12:49.790Z,18.90
2018-04-19T19:18:51.693Z,18.70
2018-04-19T19:21:19.337Z,18.60
2018-04-19T19:23:46.949Z,18.50
2018-04-19T19:26:15.794Z,18.30
2018-04-19T19:28:43.555Z,18.30
2018-04-19T19:31:11.884Z,18.20
2018-04-19T19:33:39.466Z,18.20
2018-04-19T19:36:07.152Z,18.00
2018-04-19T19:38:35.665Z,17.90
2018-04-19T19:41:03.452Z,17.90
2018-04-19T19:43:31.074Z,17.80
2018-04-19T19:45:58.715Z,17.60
2018-04-19T19:48:26.493Z,17.60
2018-04-19T19:50:54.157Z,17.50
2018-04-19T19:53:22.019Z,17.50
2018-04-19T19:55:49.706Z,17.50
2018-04-19T19:58:18.146Z,17.40
2018-04-19T20:00:46.054Z,17.30
2018-04-19T20:03:14.665Z,17.30
2018-04-19T20:05:42.321Z,17.30
2018-04-19T20:08:09.976Z,17.20
2018-04-19T20:10:38.573Z,17.10
2018-04-19T20:13:06.455Z,17.00
2018-04-19T20:15:34.176Z,17.10
2018-04-19T20:18:01.806Z,16.90
2018-04-19T20:20:29.458Z,16.90
2018-04-19T20:22:57.070Z,16.90
2018-04-19T20:25:25.817Z,16.70
2018-04-19T20:27:53.550Z,16.70
2018-04-19T20:30:21.273Z,16.60
2018-04-19T20:32:49.687Z,16.60
2018-04-19T20:35:17.313Z,16.50
2018-04-19T20:37:44.950Z,16.40
2018-04-19T20:40:12.593Z,16.30
2018-04-19T20:42:40.349Z,16.20
2018-04-19T20:45:07.952Z,16.10
2018-04-19T20:47:35.659Z,16.00
2018-04-19T20:50:03.277Z,16.00
2018-04-19T20:52:30.928Z,15.90
2018-04-19T20:54:58.525Z,15.90
2018-04-19T20:57:26.189Z,15.90
2018-04-19T20:59:53.901Z,15.80
2018-04-19T21:02:21.594Z,15.80
2018-04-19T21:04:49.274Z,15.70
2018-04-19T21:07:16.872Z,15.60
2018-04-19T21:09:44.568Z,15.60
2018-04-19T21:12:12.483Z,15.60
2018-04-19T21:14:40.141Z,15.60
2018-04-19T21:17:07.792Z,15.50
2018-04-19T21:19:35.416Z,15.40
2018-04-19T21:22:03.053Z,15.40
2018-04-19T21:24:31.091Z,15.30
2018-04-19T21:26:59.355Z,15.30
2018-04-19T21:29:26.958Z,15.20
2018-04-19T21:31:54.600Z,15.20
2018-04-19T21:34:22.198Z,15.20
2018-04-19T21:36:49.836Z,15.20
2018-04-19T21:39:18.992Z,15.10
2018-04-19T21:41:47.396Z,14.90
2018-04-19T21:44:15.074Z,14.90
2018-04-19T21:46:42.709Z,14.80
2018-04-19T21:49:10.353Z,14.70
2018-04-19T21:51:38.707Z,14.70
2018-04-19T21:54:06.296Z,14.60
2018-04-19T21:56:34.712Z,14.60
2018-04-19T21:59:02.351Z,14.60
2018-04-19T22:01:29.934Z,14.70
2018-04-19T22:03:57.572Z,14.60
2018-04-19T22:06:25.176Z,14.60
2018-04-19T22:08:52.816Z,14.40
2018-04-19T22:11:20.469Z,14.40
2018-04-19T22:13:48.104Z,14.30
2018-04-19T22:16:16.529Z,14.20
2018-04-19T22:18:44.136Z,14.20
2018-04-19T22:21:12.482Z,14.10
2018-04-19T22:23:40.120Z,14.10
2018-04-19T22:26:07.708Z,14.10
2018-04-19T22:28:35.345Z,14.00
2018-04-19T22:31:02.920Z,13.90
2018-04-19T22:33:30.556Z,13.80
2018-04-19T22:35:58.136Z,13.80
2018-04-19T22:38:25.716Z,13.70
2018-04-19T22:40:53.350Z,13.70
2018-04-19T22:43:20.936Z,13.60
2018-04-19T22:45:49.313Z,13.60
2018-04-19T22:48:16.984Z,13.60
2018-04-19T22:50:44.604Z,13.50
2018-04-19T22:53:12.185Z,13.60
2018-04-19T22:55:39.761Z,13.60
2018-04-19T22:58:07.393Z,13.60
2018-04-19T23:00:34.977Z,13.60
2018-04-19T23:03:02.617Z,13.60
2018-04-19T23:05:30.195Z,13.50
2018-04-19T23:07:57.828Z,13.50
2018-04-19T23:10:25.408Z,13.60
2018-04-19T23:12:53.045Z,13.50
2018-04-19T23:15:20.624Z,13.40
2018-04-19T23:17:48.269Z,13.30
2018-04-19T23:20:15.849Z,13.20
2018-04-19T23:22:43.444Z,13.20
2018-04-19T23:25:11.844Z,13.00
2018-04-19T23:27:39.426Z,12.90
2018-04-19T23:30:07.060Z,12.90
2018-04-19T23:32:34.679Z,12.90
2018-04-19T23:35:02.264Z,12.90
2018-04-19T23:37:30.613Z,12.70
2018-04-19T23:39:58.200Z,12.70
2018-04-19T23:42:26.580Z,12.60
2018-04-19T23:44:54.979Z,12.70
2018-04-19T23:47:22.612Z,12.70
2018-04-19T23:49:50.964Z,12.60
2018-04-19T23:52:18.583Z,12.60
2018-04-19T23:54:46.169Z,12.70
2018-04-19T23:57:13.832Z,12.70
2018-04-19T23:59:41.421Z,12.70
